Terminal Aerodrome Forecast
Issued by NWS

Home | Current Version | Previous Version | Graphics & Text | Print | Product List | Glossary On
Versions: 1 2 3 4 5 6 7 8 9 10 11 12 13 14 15 16 17 18 19 20 21 22 23 24 25 26 27 28 29 30 31 32 33 34 35
000
FTUS43 KLOT 290858 AAB
TAFORD
TAF AMD
KORD 290858Z 2909/3012 VRB03KT 6SM BR VCSH BKN020 OVC080
      TEMPO 2909/2911 5SM -SHRA
     FM291100 VRB03KT 5SM BR VCSH SCT008 BKN012
     FM291400 09006KT P6SM SCT012 BKN018
     FM291800 06008KT P6SM VCSH SCT020 BKN035
     FM300000 15004KT P6SM SCT035 BKN250
     FM300800 VRB03KT 5SM -SHRA BR BKN010 OVC018=

USA.gov is the U.S. government's official web portal to all federal, state and local government web resources and services.